Terminal Aerodrome Forecast
Issued by NWS

Home | Current Version | Previous Version | Text Only | Print | Product List | Glossary On
Versions: 1 2 3 4 5 6 7 8 9 10 11 12 13 14 15 16 17 18
077
FTUS45 KTFX 181818 AAA
TAFCTB
TAF AMD
KCTB 181818Z 1818/1918 26020G30KT P6SM FEW060 FEW250
      TEMPO 1818/1822 26030G40KT
     FM190800 24024G35KT P6SM BKN100 BKN250
     FM191700 21026G40KT P6SM FEW110 SCT200=

USA.gov is the U.S. government's official web portal to all federal, state and local government web resources and services.